Terminal Aerodrome Forecast
Issued by NWS Pendleton, OR

Home | Current Version | Previous Version | Text Only | Print | Product List | Glossary On
Versions: 1 2 3 4 5 6 7 8 9 10 11 12 13
000
FTUS46 KPDT 031720
TAFPDT
TAF
KPDT 031720Z 0318/0418 34007KT P6SM SKC
     FM040000 36009KT P6SM SKC
     FM040600 14006KT P6SM SKC
     FM041500 15006KT P6SM FEW080 SCT200=

USA.gov is the U.S. government's official web portal to all federal, state and local government web resources and services.